createdAt,value
2022-07-25T00:00:18.061Z,1.65
2022-07-25T00:03:06.569Z,2.40
2022-07-25T00:05:58.053Z,1.80
2022-07-25T00:08:44.857Z,1.90
2022-07-25T00:11:31.772Z,2.70
2022-07-25T00:14:18.512Z,2.10
2022-07-25T00:17:05.192Z,2.53
2022-07-25T00:19:53.235Z,2.58
2022-07-25T00:22:39.990Z,2.10
2022-07-25T00:25:26.929Z,2.38
2022-07-25T00:28:14.564Z,2.75
2022-07-25T00:31:01.261Z,2.57
2022-07-25T00:33:48.411Z,2.50
2022-07-25T00:36:36.646Z,2.28
2022-07-25T00:39:23.614Z,2.30
2022-07-25T00:42:10.496Z,3.00
2022-07-25T00:44:57.116Z,2.20
2022-07-25T00:47:43.887Z,2.30
2022-07-25T00:50:31.140Z,2.55
2022-07-25T00:53:19.743Z,3.50
2022-07-25T00:56:07.633Z,3.00
2022-07-25T00:58:54.827Z,3.10
2022-07-25T01:01:42.624Z,2.53
2022-07-25T01:04:29.822Z,2.97
2022-07-25T01:07:16.536Z,3.35
2022-07-25T01:10:05.152Z,3.50
2022-07-25T01:12:53.125Z,3.33
2022-07-25T01:15:40.587Z,3.83
2022-07-25T01:18:27.700Z,3.38
2022-07-25T01:21:15.844Z,3.67
2022-07-25T01:24:02.469Z,3.88
2022-07-25T01:26:49.485Z,3.63
2022-07-25T01:29:36.391Z,3.90
2022-07-25T01:32:23.191Z,3.63
2022-07-25T01:35:10.350Z,3.20
2022-07-25T01:37:58.447Z,3.80
2022-07-25T01:40:45.911Z,4.05
2022-07-25T01:43:32.636Z,3.88
2022-07-25T01:46:19.555Z,3.63
2022-07-25T01:49:06.868Z,3.97
2022-07-25T01:51:53.564Z,4.33
2022-07-25T01:54:41.946Z,3.70
2022-07-25T01:57:31.003Z,4.05
2022-07-25T02:00:18.953Z,3.53
2022-07-25T02:03:23.523Z,4.50
2022-07-25T02:06:10.434Z,4.18
2022-07-25T02:08:57.206Z,4.10
2022-07-25T02:11:45.449Z,4.00
2022-07-25T02:14:33.122Z,4.38
2022-07-25T02:17:20.101Z,4.43
2022-07-25T02:20:07.791Z,4.25
2022-07-25T02:22:54.337Z,3.72
2022-07-25T02:25:41.565Z,4.53
2022-07-25T02:28:29.692Z,4.32
2022-07-25T02:31:16.588Z,4.60
2022-07-25T02:34:04.423Z,4.22
2022-07-25T02:36:51.868Z,4.35
2022-07-25T02:39:39.043Z,4.25
2022-07-25T02:42:25.719Z,4.80
2022-07-25T02:45:14.032Z,4.38
2022-07-25T02:48:00.992Z,4.78
2022-07-25T02:50:48.002Z,4.43
2022-07-25T02:53:55.924Z,4.35
2022-07-25T02:56:41.319Z,4.07
2022-07-25T02:59:32.221Z,4.95
2022-07-25T03:02:20.773Z,4.68
2022-07-25T03:05:08.189Z,4.25
2022-07-25T03:07:54.976Z,4.82
2022-07-25T03:10:42.053Z,4.45
2022-07-25T03:13:29.120Z,5.13
2022-07-25T03:16:16.374Z,4.60
2022-07-25T03:19:04.775Z,4.80
2022-07-25T03:21:51.789Z,4.10
2022-07-25T03:24:38.826Z,4.75
2022-07-25T03:27:25.675Z,4.88
2022-07-25T03:30:13.163Z,4.70
2022-07-25T03:32:59.691Z,5.20
2022-07-25T03:35:47.886Z,4.13
2022-07-25T03:38:34.792Z,5.20
2022-07-25T03:41:21.789Z,4.93
2022-07-25T03:44:08.905Z,5.18
2022-07-25T03:46:56.229Z,5.68
2022-07-25T03:49:43.175Z,5.28
2022-07-25T03:52:31.329Z,4.65
2022-07-25T03:55:18.231Z,4.68
2022-07-25T03:58:05.390Z,4.97
2022-07-25T04:00:52.442Z,5.20
2022-07-25T04:03:39.545Z,4.67
2022-07-25T04:06:28.021Z,5.20
2022-07-25T04:09:17.035Z,5.63
2022-07-25T04:12:04.217Z,4.53
2022-07-25T04:14:50.859Z,4.70
2022-07-25T04:17:39.673Z,5.00
2022-07-25T04:20:26.770Z,5.95
2022-07-25T04:23:13.546Z,4.97
2022-07-25T04:26:01.824Z,5.50
2022-07-25T04:28:49.610Z,5.57
2022-07-25T04:31:36.737Z,5.82
2022-07-25T04:34:23.345Z,5.72
2022-07-25T04:37:10.272Z,6.40
2022-07-25T04:39:57.319Z,5.88
2022-07-25T04:42:45.581Z,5.30
2022-07-25T04:45:32.841Z,6.13
2022-07-25T04:48:19.615Z,5.70
2022-07-25T04:51:06.305Z,5.75
2022-07-25T04:53:53.194Z,6.15
2022-07-25T04:56:39.833Z,6.00
2022-07-25T04:59:27.799Z,7.00
2022-07-25T05:02:14.462Z,6.05
2022-07-25T05:05:01.782Z,6.22
2022-07-25T05:07:50.796Z,5.63
2022-07-25T05:10:37.691Z,5.32
2022-07-25T05:13:24.726Z,5.45
2022-07-25T05:16:12.723Z,5.07
2022-07-25T05:18:59.936Z,5.28
2022-07-25T05:21:46.680Z,5.50
2022-07-25T05:24:35.216Z,5.77
2022-07-25T05:27:22.384Z,5.13
2022-07-25T05:30:10.976Z,5.82
2022-07-25T05:32:59.171Z,5.40
2022-07-25T05:35:46.183Z,5.28
2022-07-25T05:38:33.406Z,5.38
2022-07-25T05:41:20.182Z,3.90
2022-07-25T05:44:07.260Z,5.30
2022-07-25T05:46:54.335Z,4.68
2022-07-25T05:49:42.583Z,5.13
2022-07-25T05:52:29.191Z,4.65
2022-07-25T05:55:15.988Z,5.30
2022-07-25T05:58:02.976Z,5.65
2022-07-25T06:00:50.869Z,4.47
2022-07-25T06:03:37.937Z,5.38
2022-07-25T06:06:26.294Z,4.32
2022-07-25T06:09:13.178Z,4.82
2022-07-25T06:12:01.432Z,4.78
2022-07-25T06:14:49.424Z,4.23
2022-07-25T06:17:37.153Z,4.50
2022-07-25T06:20:23.956Z,4.20
2022-07-25T06:23:12.169Z,4.47
2022-07-25T06:25:58.918Z,3.95
2022-07-25T06:28:46.415Z,4.40
2022-07-25T06:31:33.311Z,3.65
2022-07-25T06:34:20.261Z,3.75
2022-07-25T06:37:07.153Z,3.83
2022-07-25T06:39:55.535Z,3.72
2022-07-25T06:42:42.479Z,4.00
2022-07-25T06:45:29.126Z,3.78
2022-07-25T06:48:16.105Z,3.80
2022-07-25T06:51:02.632Z,3.85
2022-07-25T06:53:49.590Z,3.75
2022-07-25T06:56:37.574Z,4.72
2022-07-25T06:59:24.187Z,4.07
2022-07-25T07:02:12.617Z,3.50
2022-07-25T07:04:59.397Z,3.65
2022-07-25T07:07:48.015Z,3.43
2022-07-25T07:10:35.430Z,3.72
2022-07-25T07:13:24.593Z,4.07
2022-07-25T07:16:12.137Z,3.95
2022-07-25T07:18:59.578Z,4.13
2022-07-25T07:21:46.580Z,3.38
2022-07-25T07:24:33.753Z,3.97
2022-07-25T07:27:23.462Z,3.75
2022-07-25T07:30:14.713Z,3.70
2022-07-25T07:33:01.497Z,4.07
2022-07-25T07:35:48.238Z,3.92
2022-07-25T07:38:35.275Z,4.03
2022-07-25T07:41:22.139Z,3.75
2022-07-25T07:44:09.004Z,4.00
2022-07-25T07:46:57.136Z,4.45
2022-07-25T07:49:48.374Z,3.95
2022-07-25T07:52:37.201Z,3.58
2022-07-25T07:55:41.849Z,3.47
2022-07-25T07:58:29.755Z,4.45
2022-07-25T08:01:16.716Z,2.90
2022-07-25T08:04:05.271Z,2.60
2022-07-25T08:06:52.157Z,2.87
2022-07-25T08:09:38.795Z,2.67
2022-07-25T08:12:25.760Z,2.70
2022-07-25T08:15:12.953Z,2.40
2022-07-25T08:18:00.353Z,2.40
2022-07-25T08:20:48.528Z,2.45
2022-07-25T08:23:35.713Z,2.45
2022-07-25T08:26:22.641Z,2.50
2022-07-25T08:29:19.384Z,2.47
2022-07-25T08:32:07.187Z,2.10
2022-07-25T08:34:54.290Z,2.40
2022-07-25T08:37:42.647Z,2.95
2022-07-25T08:40:30.324Z,3.17
2022-07-25T08:43:17.634Z,2.60
2022-07-25T08:46:06.930Z,2.90
2022-07-25T08:48:54.258Z,2.75
2022-07-25T08:51:41.465Z,2.30
2022-07-25T08:54:29.386Z,2.50
2022-07-25T08:57:16.591Z,2.47
2022-07-25T09:00:04.190Z,2.88
2022-07-25T09:02:54.548Z,2.65
2022-07-25T09:05:41.796Z,2.20
2022-07-25T09:08:28.524Z,2.80
2022-07-25T09:11:27.574Z,2.80
2022-07-25T09:14:15.478Z,2.25
2022-07-25T09:17:07.609Z,2.13
2022-07-25T09:20:12.184Z,2.35
2022-07-25T09:23:00.917Z,2.08
2022-07-25T09:25:47.838Z,1.20
2022-07-25T09:28:41.217Z,0.90
2022-07-25T09:31:34.883Z,0.90
2022-07-25T09:34:32.063Z,0.65
2022-07-25T09:37:20.206Z,0.90
2022-07-25T09:40:14.755Z,1.00
2022-07-25T09:43:01.873Z,0.85
2022-07-25T09:45:52.676Z,0.70
2022-07-25T09:48:41.884Z,0.70
2022-07-25T09:51:29.019Z,0.70
2022-07-25T09:54:16.030Z,1.15
2022-07-25T09:57:02.762Z,1.00
2022-07-25T09:59:50.069Z,0.70
2022-07-25T10:02:42.246Z,0.70
2022-07-25T10:05:32.782Z,0.90
2022-07-25T10:08:20.548Z,0.50
2022-07-25T10:11:09.137Z,0.57
2022-07-25T10:13:57.093Z,1.65
2022-07-25T10:16:48.014Z,0.60
2022-07-25T10:19:49.237Z,0.60
2022-07-25T10:22:56.868Z,0.50
2022-07-25T10:25:49.004Z,0.60
2022-07-25T10:28:38.189Z,0.77
2022-07-25T10:31:27.758Z,0.70
2022-07-25T10:34:14.840Z,0.50
2022-07-25T10:37:12.508Z,0.57
2022-07-25T10:39:59.447Z,0.40
2022-07-25T10:42:46.742Z,0.50
2022-07-25T10:45:41.097Z,0.52
2022-07-25T10:48:30.019Z,0.47
2022-07-25T10:51:16.758Z,0.57
2022-07-25T10:54:15.702Z,1.40
2022-07-25T10:57:02.954Z,0.80
2022-07-25T10:59:50.185Z,0.50
2022-07-25T11:02:37.143Z,0.70
2022-07-25T11:05:24.026Z,0.68
2022-07-25T11:08:21.693Z,0.50
2022-07-25T11:11:11.037Z,0.93
2022-07-25T11:13:58.077Z,0.38
2022-07-25T11:16:45.849Z,0.73
2022-07-25T11:19:32.886Z,0.52
2022-07-25T11:22:19.710Z,0.85
2022-07-25T11:25:12.047Z,0.52
2022-07-25T11:28:01.091Z,0.52
2022-07-25T11:30:47.901Z,0.80
2022-07-25T11:33:38.684Z,0.93
2022-07-25T11:36:26.094Z,0.57
2022-07-25T11:39:16.974Z,1.00
2022-07-25T11:42:07.539Z,0.70
2022-07-25T11:44:56.205Z,0.70
2022-07-25T11:47:43.056Z,1.13
2022-07-25T11:50:31.124Z,0.57
2022-07-25T11:53:19.768Z,0.80
2022-07-25T11:56:39.816Z,0.63
2022-07-25T11:59:19.125Z,1.30
2022-07-25T12:02:07.291Z,1.00
2022-07-25T12:04:58.059Z,0.73
2022-07-25T12:07:46.171Z,0.70
2022-07-25T12:10:33.937Z,0.70
2022-07-25T12:13:24.334Z,1.08
2022-07-25T12:16:11.084Z,0.80
2022-07-25T12:18:59.007Z,0.80
2022-07-25T12:21:45.664Z,0.80
2022-07-25T12:24:32.519Z,0.70
2022-07-25T12:27:19.458Z,1.00
2022-07-25T12:30:07.566Z,0.85
2022-07-25T12:32:54.628Z,1.00
2022-07-25T12:35:43.282Z,1.05
2022-07-25T12:38:30.096Z,0.52
2022-07-25T12:41:18.098Z,0.70
2022-07-25T12:44:05.301Z,1.15
2022-07-25T12:46:52.203Z,0.80
2022-07-25T12:49:38.902Z,0.50
2022-07-25T12:52:27.167Z,1.02
2022-07-25T12:55:15.652Z,0.75
2022-07-25T12:58:02.891Z,1.25
2022-07-25T13:00:49.929Z,0.80
2022-07-25T13:03:37.224Z,0.82
2022-07-25T13:06:23.890Z,1.10
2022-07-25T13:09:12.054Z,0.88
2022-07-25T13:11:58.804Z,0.80
2022-07-25T13:14:45.737Z,0.63
2022-07-25T13:17:33.616Z,0.77
2022-07-25T13:20:20.428Z,1.10
2022-07-25T13:23:07.445Z,0.60
2022-07-25T13:25:55.629Z,0.80
2022-07-25T13:28:42.453Z,1.37
2022-07-25T13:31:30.127Z,0.90
2022-07-25T13:34:17.295Z,1.00
2022-07-25T13:37:04.510Z,1.55
2022-07-25T13:39:51.252Z,1.08
2022-07-25T13:42:39.896Z,0.80
2022-07-25T13:45:26.875Z,0.82
2022-07-25T13:48:30.879Z,0.70
2022-07-25T13:51:18.164Z,1.23
2022-07-25T13:54:05.531Z,0.88
2022-07-25T13:56:52.516Z,0.82
2022-07-25T13:59:40.795Z,1.20
2022-07-25T14:02:28.095Z,1.00
2022-07-25T14:05:15.261Z,1.20
2022-07-25T14:08:02.131Z,1.15
2022-07-25T14:10:48.887Z,1.40
2022-07-25T14:13:35.969Z,1.20
2022-07-25T14:16:23.821Z,0.90
2022-07-25T14:19:11.080Z,1.08
2022-07-25T14:21:58.345Z,1.48
2022-07-25T14:24:45.364Z,1.38
2022-07-25T14:27:32.133Z,1.48
2022-07-25T14:30:19.426Z,1.15
2022-07-25T14:33:07.432Z,1.15
2022-07-25T14:35:54.125Z,1.45
2022-07-25T14:38:41.005Z,1.85
2022-07-25T14:41:27.920Z,0.60
2022-07-25T14:44:14.527Z,1.27
2022-07-25T14:47:01.423Z,0.90
2022-07-25T14:49:50.152Z,0.80
2022-07-25T14:52:36.853Z,1.08
2022-07-25T14:55:25.709Z,0.90
2022-07-25T14:58:13.776Z,1.65
2022-07-25T15:01:00.760Z,0.68
2022-07-25T15:03:49.465Z,0.60
2022-07-25T15:06:37.500Z,0.75
2022-07-25T15:09:24.312Z,0.63
2022-07-25T15:12:16.200Z,1.30
2022-07-25T15:15:03.611Z,1.02
2022-07-25T15:17:50.488Z,1.30
2022-07-25T15:20:37.169Z,0.85
2022-07-25T15:23:27.732Z,0.68
2022-07-25T15:26:16.583Z,0.82
2022-07-25T15:29:04.868Z,1.13
2022-07-25T15:31:52.584Z,0.75
2022-07-25T15:34:39.469Z,0.80
2022-07-25T15:37:26.176Z,1.20
2022-07-25T15:40:15.034Z,0.73
2022-07-25T15:43:02.082Z,0.40
2022-07-25T15:45:49.203Z,0.77
2022-07-25T15:48:36.100Z,0.95
2022-07-25T15:51:23.410Z,1.08
2022-07-25T15:54:10.452Z,0.82
2022-07-25T15:56:58.384Z,0.85
2022-07-25T15:59:44.972Z,0.98
2022-07-25T16:02:31.570Z,0.68
2022-07-25T16:05:18.292Z,1.17
2022-07-25T16:08:05.171Z,1.55
2022-07-25T16:10:52.780Z,1.20
2022-07-25T16:13:41.860Z,0.73
2022-07-25T16:16:28.896Z,0.80
2022-07-25T16:19:15.581Z,0.98
2022-07-25T16:22:02.631Z,1.02
2022-07-25T16:24:49.343Z,0.75
2022-07-25T16:27:36.678Z,1.17
2022-07-25T16:30:25.822Z,1.30
2022-07-25T16:33:12.791Z,0.98
2022-07-25T16:35:59.361Z,1.40
2022-07-25T16:38:47.647Z,1.42
2022-07-25T16:41:34.567Z,1.17
2022-07-25T16:44:23.406Z,0.55
2022-07-25T16:47:11.676Z,0.67
2022-07-25T16:49:58.422Z,0.57
2022-07-25T16:52:45.378Z,1.00
2022-07-25T16:55:31.974Z,0.60
2022-07-25T16:58:19.602Z,0.95
2022-07-25T17:01:06.785Z,0.55
2022-07-25T17:03:55.180Z,0.85
2022-07-25T17:06:42.876Z,0.95
2022-07-25T17:09:29.505Z,0.57
2022-07-25T17:12:17.405Z,0.82
2022-07-25T17:15:04.584Z,0.70
2022-07-25T17:17:51.230Z,0.90
2022-07-25T17:20:39.353Z,0.88
2022-07-25T17:23:26.535Z,0.68
2022-07-25T17:26:13.141Z,0.43
2022-07-25T17:28:59.960Z,0.40
2022-07-25T17:31:47.156Z,0.38
2022-07-25T17:34:34.464Z,0.70
2022-07-25T17:37:24.201Z,0.52
2022-07-25T17:40:11.689Z,0.52
2022-07-25T17:42:58.686Z,0.60
2022-07-25T17:45:45.359Z,1.10
2022-07-25T17:48:32.070Z,0.73
2022-07-25T17:51:19.269Z,2.55
2022-07-25T17:54:07.738Z,0.50
2022-07-25T17:56:55.000Z,0.68
2022-07-25T17:59:41.959Z,0.50
2022-07-25T18:02:28.923Z,0.63
2022-07-25T18:05:15.900Z,0.40
2022-07-25T18:08:02.908Z,0.73
2022-07-25T18:10:51.669Z,0.60
2022-07-25T18:13:38.607Z,0.70
2022-07-25T18:16:25.223Z,1.20
2022-07-25T18:19:12.442Z,0.63
2022-07-25T18:21:59.168Z,0.70
2022-07-25T18:24:45.761Z,0.55
2022-07-25T18:27:33.884Z,0.50
2022-07-25T18:30:20.707Z,0.55
2022-07-25T18:33:08.098Z,0.77
2022-07-25T18:35:54.888Z,0.50
2022-07-25T18:38:41.874Z,0.40
2022-07-25T18:41:30.304Z,0.52
2022-07-25T18:44:19.139Z,0.40
2022-07-25T18:47:06.863Z,1.00
2022-07-25T18:49:54.307Z,0.43
2022-07-25T18:52:41.285Z,0.50
2022-07-25T18:55:28.255Z,0.47
2022-07-25T18:58:15.953Z,0.80
2022-07-25T19:01:04.404Z,0.55
2022-07-25T19:03:51.093Z,1.10
2022-07-25T19:06:38.105Z,0.83
2022-07-25T19:09:25.850Z,0.60
2022-07-25T19:12:12.313Z,0.93
2022-07-25T19:14:59.126Z,0.77
2022-07-25T19:17:47.305Z,0.80
2022-07-25T19:20:34.367Z,0.47
2022-07-25T19:23:21.396Z,1.15
2022-07-25T19:26:08.504Z,0.90
2022-07-25T19:28:55.632Z,1.08
2022-07-25T19:31:42.540Z,1.60
2022-07-25T19:34:30.709Z,0.82
2022-07-25T19:37:17.785Z,1.13
2022-07-25T19:40:06.238Z,0.90
2022-07-25T19:42:52.807Z,1.35
2022-07-25T19:45:39.567Z,1.02
2022-07-25T19:48:26.710Z,0.80
2022-07-25T19:51:14.672Z,1.03
2022-07-25T19:54:03.345Z,0.50
2022-07-25T19:56:50.474Z,0.60
2022-07-25T19:59:37.352Z,0.68
2022-07-25T20:02:24.457Z,0.80
2022-07-25T20:05:12.283Z,1.00
2022-07-25T20:08:00.487Z,0.93
2022-07-25T20:10:48.304Z,0.95
2022-07-25T20:13:35.413Z,1.00
2022-07-25T20:16:22.474Z,0.70
2022-07-25T20:19:11.109Z,0.65
2022-07-25T20:21:58.400Z,0.93
2022-07-25T20:24:46.711Z,2.03
2022-07-25T20:27:33.768Z,0.93
2022-07-25T20:30:20.437Z,0.70
2022-07-25T20:33:09.081Z,0.80
2022-07-25T20:35:57.508Z,0.80
2022-07-25T20:38:44.528Z,1.02
2022-07-25T20:41:32.594Z,0.90
2022-07-25T20:44:19.481Z,0.80
2022-07-25T20:47:06.589Z,1.10
2022-07-25T20:49:53.398Z,0.82
2022-07-25T20:52:40.071Z,1.48
2022-07-25T20:55:28.375Z,0.90
2022-07-25T20:58:16.604Z,0.95
2022-07-25T21:01:03.140Z,0.88
2022-07-25T21:03:52.057Z,0.98
2022-07-25T21:06:38.753Z,1.65
2022-07-25T21:09:28.484Z,1.00
2022-07-25T21:12:19.133Z,1.25
2022-07-25T21:15:08.201Z,1.15
2022-07-25T21:17:55.156Z,0.90
2022-07-25T21:20:42.209Z,0.70
2022-07-25T21:23:29.203Z,1.42
2022-07-25T21:26:17.018Z,0.98
2022-07-25T21:29:03.924Z,1.13
2022-07-25T21:31:52.133Z,0.90
2022-07-25T21:34:41.077Z,0.80
2022-07-25T21:37:27.947Z,0.80
2022-07-25T21:40:14.843Z,0.85
2022-07-25T21:43:01.783Z,1.15
2022-07-25T21:45:51.335Z,0.73
2022-07-25T21:48:57.203Z,1.08
2022-07-25T21:51:44.632Z,0.73
2022-07-25T21:54:31.680Z,0.98
2022-07-25T21:57:18.736Z,0.73
2022-07-25T22:00:06.722Z,1.55
2022-07-25T22:03:00.715Z,1.02
2022-07-25T22:05:48.988Z,1.02
2022-07-25T22:08:35.993Z,1.33
2022-07-25T22:11:38.323Z,1.05
2022-07-25T22:14:30.021Z,1.23
2022-07-25T22:17:16.743Z,1.17
2022-07-25T22:20:03.964Z,1.20
2022-07-25T22:22:52.092Z,1.55
2022-07-25T22:25:38.827Z,1.10
2022-07-25T22:28:25.535Z,1.20
2022-07-25T22:31:13.265Z,1.00
2022-07-25T22:34:00.281Z,0.80
2022-07-25T22:36:46.931Z,0.65
2022-07-25T22:39:35.091Z,0.82
2022-07-25T22:42:21.593Z,1.13
2022-07-25T22:45:08.955Z,0.80
2022-07-25T22:47:56.298Z,1.05
2022-07-25T22:50:43.240Z,1.05
2022-07-25T22:53:29.812Z,0.70
2022-07-25T22:56:17.874Z,1.45
2022-07-25T22:59:05.403Z,1.17
2022-07-25T23:01:52.364Z,1.20
2022-07-25T23:04:39.304Z,2.20
2022-07-25T23:07:26.457Z,1.50
2022-07-25T23:10:13.267Z,1.10
2022-07-25T23:13:01.658Z,0.63
2022-07-25T23:15:50.067Z,0.85
2022-07-25T23:18:38.330Z,1.15
2022-07-25T23:21:25.266Z,1.20
2022-07-25T23:24:12.281Z,0.73
2022-07-25T23:26:59.238Z,1.05
2022-07-25T23:29:47.585Z,0.80
2022-07-25T23:32:35.169Z,0.90
2022-07-25T23:35:22.129Z,0.95
2022-07-25T23:38:09.023Z,1.48
2022-07-25T23:40:55.953Z,0.90
2022-07-25T23:43:57.693Z,1.52
2022-07-25T23:46:47.898Z,1.80
2022-07-25T23:49:35.628Z,1.00
2022-07-25T23:52:22.508Z,1.50
2022-07-25T23:55:10.267Z,1.83
2022-07-25T23:57:57.185Z,1.27
